sensor_id;sensor_type;location;lat;lon;timestamp;P1;durP1;ratioP1;P2;durP2;ratioP2
61675;SDS011;47574;52.090;5.244;2022-09-09T00:00:06;3.6;;;2.21;;
61675;SDS011;47574;52.090;5.244;2022-09-09T00:01:50;2.8;;;2.4;;
61675;SDS011;47574;52.090;5.244;2022-09-09T00:03:36;3.5;;;2.4;;
61675;SDS011;47574;52.090;5.244;2022-09-09T00:05:19;4.2;;;2.9;;
61675;SDS011;47574;52.090;5.244;2022-09-09T00:08:53;2.7;;;2.5;;
61675;SDS011;47574;52.090;5.244;2022-09-09T00:10:39;4.0;;;2.8;;
61675;SDS011;47574;52.090;5.244;2022-09-09T00:12:18;4.0;;;2.9;;
61675;SDS011;47574;52.090;5.244;2022-09-09T00:14:13;4.41;;;2.7;;
61675;SDS011;47574;52.090;5.244;2022-09-09T00:15:59;3.7;;;2.6;;
61675;SDS011;47574;52.090;5.244;2022-09-09T00:21:16;3.4;;;3.0;;
61675;SDS011;47574;52.090;5.244;2022-09-09T00:22:55;3.1;;;2.9;;
61675;SDS011;47574;52.090;5.244;2022-09-09T00:24:41;3.5;;;2.8;;
61675;SDS011;47574;52.090;5.244;2022-09-09T00:26:21;4.1;;;3.5;;
61675;SDS011;47574;52.090;5.244;2022-09-09T00:29:54;3.1;;;2.8;;
61675;SDS011;47574;52.090;5.244;2022-09-09T00:33:16;4.41;;;3.0;;
61675;SDS011;47574;52.090;5.244;2022-09-09T00:34:56;5.0;;;3.5;;
61675;SDS011;47574;52.090;5.244;2022-09-09T00:38:15;4.8;;;3.1;;
61675;SDS011;47574;52.090;5.244;2022-09-09T00:39:57;5.11;;;3.3;;
61675;SDS011;47574;52.090;5.244;2022-09-09T00:41:41;4.3;;;3.2;;
61675;SDS011;47574;52.090;5.244;2022-09-09T00:43:38;6.5;;;3.3;;
61675;SDS011;47574;52.090;5.244;2022-09-09T00:45:19;4.0;;;3.2;;
61675;SDS011;47574;52.090;5.244;2022-09-09T00:47:27;3.8;;;3.5;;
61675;SDS011;47574;52.090;5.244;2022-09-09T00:49:33;3.7;;;3.1;;
61675;SDS011;47574;52.090;5.244;2022-09-09T00:51:23;4.41;;;3.6;;
61675;SDS011;47574;52.090;5.244;2022-09-09T00:55:06;4.8;;;3.2;;
61675;SDS011;47574;52.090;5.244;2022-09-09T00:56:55;5.3;;;3.6;;
61675;SDS011;47574;52.090;5.244;2022-09-09T00:58:42;4.1;;;3.7;;
61675;SDS011;47574;52.090;5.244;2022-09-09T01:00:27;4.41;;;3.1;;
61675;SDS011;47574;52.090;5.244;2022-09-09T01:02:12;5.0;;;3.8;;
61675;SDS011;47574;52.090;5.244;2022-09-09T01:03:54;3.7;;;3.3;;
61675;SDS011;47574;52.090;5.244;2022-09-09T01:07:16;4.3;;;4.0;;
61675;SDS011;47574;52.090;5.244;2022-09-09T01:08:58;4.3;;;3.9;;
61675;SDS011;47574;52.090;5.244;2022-09-09T01:10:57;4.7;;;3.5;;
61675;SDS011;47574;52.090;5.244;2022-09-09T01:12:37;5.3;;;3.9;;
61675;SDS011;47574;52.090;5.244;2022-09-09T01:16:09;6.2;;;4.1;;
61675;SDS011;47574;52.090;5.244;2022-09-09T01:17:50;6.7;;;4.5;;
61675;SDS011;47574;52.090;5.244;2022-09-09T01:19:36;6.3;;;4.41;;
61675;SDS011;47574;52.090;5.244;2022-09-09T01:21:26;5.9;;;4.2;;
61675;SDS011;47574;52.090;5.244;2022-09-09T01:23:19;6.3;;;3.9;;
61675;SDS011;47574;52.090;5.244;2022-09-09T01:25:13;6.3;;;4.1;;
61675;SDS011;47574;52.090;5.244;2022-09-09T01:27:50;5.11;;;4.5;;
61675;SDS011;47574;52.090;5.244;2022-09-09T01:29:31;4.0;;;3.6;;
61675;SDS011;47574;52.090;5.244;2022-09-09T01:31:09;4.61;;;4.2;;
61675;SDS011;47574;52.090;5.244;2022-09-09T01:34:32;5.3;;;3.8;;
61675;SDS011;47574;52.090;5.244;2022-09-09T01:36:16;6.4;;;4.8;;
61675;SDS011;47574;52.090;5.244;2022-09-09T01:38:00;5.7;;;4.8;;
61675;SDS011;47574;52.090;5.244;2022-09-09T01:39:37;5.2;;;4.7;;
61675;SDS011;47574;52.090;5.244;2022-09-09T01:42:55;5.3;;;4.8;;
61675;SDS011;47574;52.090;5.244;2022-09-09T01:44:32;5.6;;;5.11;;
61675;SDS011;47574;52.090;5.244;2022-09-09T01:46:10;4.8;;;4.1;;
61675;SDS011;47574;52.090;5.244;2022-09-09T01:47:48;5.5;;;4.61;;
61675;SDS011;47574;52.090;5.244;2022-09-09T01:51:03;7.8;;;5.0;;
61675;SDS011;47574;52.090;5.244;2022-09-09T01:52:39;7.6;;;4.7;;
61675;SDS011;47574;52.090;5.244;2022-09-09T01:54:16;5.4;;;4.1;;
61675;SDS011;47574;52.090;5.244;2022-09-09T01:57:42;5.6;;;5.0;;
61675;SDS011;47574;52.090;5.244;2022-09-09T01:59:36;6.0;;;5.0;;
61675;SDS011;47574;52.090;5.244;2022-09-09T02:01:26;4.41;;;3.8;;
61675;SDS011;47574;52.090;5.244;2022-09-09T02:03:17;5.3;;;4.8;;
61675;SDS011;47574;52.090;5.244;2022-09-09T02:05:03;8.5;;;5.4;;
61675;SDS011;47574;52.090;5.244;2022-09-09T02:06:52;7.0;;;5.11;;
61675;SDS011;47574;52.090;5.244;2022-09-09T02:10:19;8.4;;;5.3;;
61675;SDS011;47574;52.090;5.244;2022-09-09T02:12:06;6.3;;;5.2;;
61675;SDS011;47574;52.090;5.244;2022-09-09T02:13:48;5.7;;;5.11;;
61675;SDS011;47574;52.090;5.244;2022-09-09T02:15:30;7.3;;;4.8;;
61675;SDS011;47574;52.090;5.244;2022-09-09T02:17:15;5.9;;;5.0;;
61675;SDS011;47574;52.090;5.244;2022-09-09T02:20:41;5.5;;;4.8;;
61675;SDS011;47574;52.090;5.244;2022-09-09T02:22:21;7.0;;;5.2;;
61675;SDS011;47574;52.090;5.244;2022-09-09T02:24:00;5.5;;;4.61;;
61675;SDS011;47574;52.090;5.244;2022-09-09T02:25:41;5.7;;;5.2;;
61675;SDS011;47574;52.090;5.244;2022-09-09T02:28:58;5.5;;;5.0;;
61675;SDS011;47574;52.090;5.244;2022-09-09T02:30:38;5.4;;;4.61;;
61675;SDS011;47574;52.090;5.244;2022-09-09T02:32:19;5.8;;;5.0;;
61675;SDS011;47574;52.090;5.244;2022-09-09T02:37:18;5.6;;;5.11;;
61675;SDS011;47574;52.090;5.244;2022-09-09T02:38:58;7.2;;;4.91;;
61675;SDS011;47574;52.090;5.244;2022-09-09T02:40:35;5.0;;;4.5;;
61675;SDS011;47574;52.090;5.244;2022-09-09T02:43:47;6.0;;;5.4;;
61675;SDS011;47574;52.090;5.244;2022-09-09T02:45:25;7.3;;;5.3;;
61675;SDS011;47574;52.090;5.244;2022-09-09T02:47:12;5.3;;;4.8;;
61675;SDS011;47574;52.090;5.244;2022-09-09T02:49:00;5.9;;;5.3;;
61675;SDS011;47574;52.090;5.244;2022-09-09T02:50:46;6.6;;;5.5;;
61675;SDS011;47574;52.090;5.244;2022-09-09T02:54:20;6.2;;;5.6;;
61675;SDS011;47574;52.090;5.244;2022-09-09T02:56:03;7.1;;;5.3;;
61675;SDS011;47574;52.090;5.244;2022-09-09T02:57:47;8.0;;;6.1;;
61675;SDS011;47574;52.090;5.244;2022-09-09T02:59:25;7.0;;;5.7;;
61675;SDS011;47574;52.090;5.244;2022-09-09T03:01:02;9.0;;;6.0;;
61675;SDS011;47574;52.090;5.244;2022-09-09T03:04:15;6.1;;;5.5;;
61675;SDS011;47574;52.090;5.244;2022-09-09T03:05:51;8.0;;;6.2;;
61675;SDS011;47574;52.090;5.244;2022-09-09T03:07:27;8.1;;;6.2;;
61675;SDS011;47574;52.090;5.244;2022-09-09T03:10:40;7.8;;;5.2;;
61675;SDS011;47574;52.090;5.244;2022-09-09T03:12:16;6.2;;;5.4;;
61675;SDS011;47574;52.090;5.244;2022-09-09T03:13:53;7.5;;;6.2;;
61675;SDS011;47574;52.090;5.244;2022-09-09T03:17:09;6.7;;;5.4;;
61675;SDS011;47574;52.090;5.244;2022-09-09T03:18:45;7.6;;;6.1;;
61675;SDS011;47574;52.090;5.244;2022-09-09T03:20:22;9.81;;;6.4;;
61675;SDS011;47574;52.090;5.244;2022-09-09T03:22:00;6.5;;;5.5;;
61675;SDS011;47574;52.090;5.244;2022-09-09T03:25:12;7.5;;;6.7;;
61675;SDS011;47574;52.090;5.244;2022-09-09T03:26:50;8.4;;;6.0;;
61675;SDS011;47574;52.090;5.244;2022-09-09T03:28:31;9.0;;;6.7;;
61675;SDS011;47574;52.090;5.244;2022-09-09T03:31:44;9.4;;;6.5;;
61675;SDS011;47574;52.090;5.244;2022-09-09T03:33:20;8.0;;;6.4;;
61675;SDS011;47574;52.090;5.244;2022-09-09T03:34:56;6.4;;;5.8;;
61675;SDS011;47574;52.090;5.244;2022-09-09T03:38:10;8.0;;;6.7;;
61675;SDS011;47574;52.090;5.244;2022-09-09T03:39:46;8.5;;;6.4;;
61675;SDS011;47574;52.090;5.244;2022-09-09T03:41:24;9.6;;;7.1;;
61675;SDS011;47574;52.090;5.244;2022-09-09T03:43:01;7.6;;;6.8;;
61675;SDS011;47574;52.090;5.244;2022-09-09T03:46:13;9.9;;;6.3;;
61675;SDS011;47574;52.090;5.244;2022-09-09T03:47:50;6.8;;;6.2;;
61675;SDS011;47574;52.090;5.244;2022-09-09T03:49:28;8.71;;;7.0;;
61675;SDS011;47574;52.090;5.244;2022-09-09T03:52:42;10.9;;;7.3;;
61675;SDS011;47574;52.090;5.244;2022-09-09T03:54:18;7.8;;;6.6;;
61675;SDS011;47574;52.090;5.244;2022-09-09T03:55:55;9.1;;;6.6;;
61675;SDS011;47574;52.090;5.244;2022-09-09T03:57:34;7.9;;;7.1;;
61675;SDS011;47574;52.090;5.244;2022-09-09T04:00:52;9.1;;;6.7;;
61675;SDS011;47574;52.090;5.244;2022-09-09T04:02:30;7.1;;;6.4;;
61675;SDS011;47574;52.090;5.244;2022-09-09T04:04:08;7.7;;;6.9;;
61675;SDS011;47574;52.090;5.244;2022-09-09T04:07:25;8.5;;;6.4;;
61675;SDS011;47574;52.090;5.244;2022-09-09T04:09:03;9.21;;;6.7;;
61675;SDS011;47574;52.090;5.244;2022-09-09T04:10:39;7.8;;;7.0;;
61675;SDS011;47574;52.090;5.244;2022-09-09T04:12:16;9.6;;;7.5;;
61675;SDS011;47574;52.090;5.244;2022-09-09T04:15:29;8.9;;;7.0;;
61675;SDS011;47574;52.090;5.244;2022-09-09T04:17:06;7.8;;;6.7;;
61675;SDS011;47574;52.090;5.244;2022-09-09T04:18:42;9.71;;;7.5;;
61675;SDS011;47574;52.090;5.244;2022-09-09T04:21:55;8.0;;;7.2;;
61675;SDS011;47574;52.090;5.244;2022-09-09T04:23:31;8.4;;;7.0;;
61675;SDS011;47574;52.090;5.244;2022-09-09T04:25:08;7.9;;;6.8;;
61675;SDS011;47574;52.090;5.244;2022-09-09T04:28:22;7.7;;;6.9;;
61675;SDS011;47574;52.090;5.244;2022-09-09T04:30:01;8.0;;;6.0;;
61675;SDS011;47574;52.090;5.244;2022-09-09T04:31:41;8.4;;;6.4;;
61675;SDS011;47574;52.090;5.244;2022-09-09T04:33:17;7.8;;;6.5;;
61675;SDS011;47574;52.090;5.244;2022-09-09T04:36:31;9.81;;;7.0;;
61675;SDS011;47574;52.090;5.244;2022-09-09T04:38:09;7.7;;;6.6;;
61675;SDS011;47574;52.090;5.244;2022-09-09T04:39:45;6.6;;;5.8;;
61675;SDS011;47574;52.090;5.244;2022-09-09T04:42:57;9.21;;;6.6;;
61675;SDS011;47574;52.090;5.244;2022-09-09T04:44:35;7.2;;;6.5;;
61675;SDS011;47574;52.090;5.244;2022-09-09T04:46:11;9.5;;;6.6;;
61675;SDS011;47574;52.090;5.244;2022-09-09T04:47:47;7.5;;;5.9;;
61675;SDS011;47574;52.090;5.244;2022-09-09T04:51:00;9.21;;;6.4;;
61675;SDS011;47574;52.090;5.244;2022-09-09T04:52:37;8.0;;;5.6;;
61675;SDS011;47574;52.090;5.244;2022-09-09T04:54:13;9.21;;;6.5;;
61675;SDS011;47574;52.090;5.244;2022-09-09T04:57:26;9.1;;;6.5;;
61675;SDS011;47574;52.090;5.244;2022-09-09T04:59:03;9.4;;;7.3;;
61675;SDS011;47574;52.090;5.244;2022-09-09T05:00:38;9.0;;;6.6;;
61675;SDS011;47574;52.090;5.244;2022-09-09T05:03:51;8.4;;;6.4;;
61675;SDS011;47574;52.090;5.244;2022-09-09T05:05:28;8.6;;;6.8;;
61675;SDS011;47574;52.090;5.244;2022-09-09T05:07:04;10.0;;;7.0;;
61675;SDS011;47574;52.090;5.244;2022-09-09T05:08:40;8.0;;;5.5;;
61675;SDS011;47574;52.090;5.244;2022-09-09T05:11:57;8.2;;;5.8;;
61675;SDS011;47574;52.090;5.244;2022-09-09T05:13:34;9.6;;;6.0;;
61675;SDS011;47574;52.090;5.244;2022-09-09T05:15:10;8.0;;;5.7;;
61675;SDS011;47574;52.090;5.244;2022-09-09T05:18:23;7.2;;;5.7;;
61675;SDS011;47574;52.090;5.244;2022-09-09T05:19:59;6.3;;;5.7;;
61675;SDS011;47574;52.090;5.244;2022-09-09T05:21:35;7.8;;;5.7;;
61675;SDS011;47574;52.090;5.244;2022-09-09T05:24:50;8.31;;;5.6;;
61675;SDS011;47574;52.090;5.244;2022-09-09T05:26:26;8.2;;;5.5;;
61675;SDS011;47574;52.090;5.244;2022-09-09T05:28:02;8.4;;;5.9;;
61675;SDS011;47574;52.090;5.244;2022-09-09T05:29:38;12.0;;;5.8;;
61675;SDS011;47574;52.090;5.244;2022-09-09T05:32:55;6.1;;;5.0;;
61675;SDS011;47574;52.090;5.244;2022-09-09T05:34:32;9.1;;;5.11;;
61675;SDS011;47574;52.090;5.244;2022-09-09T05:36:09;8.0;;;5.3;;
61675;SDS011;47574;52.090;5.244;2022-09-09T05:39:23;8.1;;;5.2;;
61675;SDS011;47574;52.090;5.244;2022-09-09T05:40:59;11.0;;;5.3;;
61675;SDS011;47574;52.090;5.244;2022-09-09T05:42:37;6.1;;;4.41;;
61675;SDS011;47574;52.090;5.244;2022-09-09T05:44:13;11.7;;;5.3;;
61675;SDS011;47574;52.090;5.244;2022-09-09T05:47:35;9.81;;;5.11;;
61675;SDS011;47574;52.090;5.244;2022-09-09T05:49:12;8.4;;;4.8;;
61675;SDS011;47574;52.090;5.244;2022-09-09T05:50:52;9.71;;;4.61;;
61675;SDS011;47574;52.090;5.244;2022-09-09T05:54:05;6.6;;;4.91;;
61675;SDS011;47574;52.090;5.244;2022-09-09T05:55:42;8.0;;;4.2;;
61675;SDS011;47574;52.090;5.244;2022-09-09T05:57:19;8.2;;;4.91;;
61675;SDS011;47574;52.090;5.244;2022-09-09T05:58:55;6.5;;;4.1;;
61675;SDS011;47574;52.090;5.244;2022-09-09T06:02:08;9.21;;;5.0;;
61675;SDS011;47574;52.090;5.244;2022-09-09T06:03:45;11.3;;;4.91;;
61675;SDS011;47574;52.090;5.244;2022-09-09T06:05:23;9.71;;;5.0;;
61675;SDS011;47574;52.090;5.244;2022-09-09T06:08:38;8.5;;;3.9;;
61675;SDS011;47574;52.090;5.244;2022-09-09T06:10:16;7.9;;;4.2;;
61675;SDS011;47574;52.090;5.244;2022-09-09T06:11:54;10.21;;;4.7;;
61675;SDS011;47574;52.090;5.244;2022-09-09T06:15:09;7.2;;;4.1;;
61675;SDS011;47574;52.090;5.244;2022-09-09T06:16:46;11.1;;;4.61;;
61675;SDS011;47574;52.090;5.244;2022-09-09T06:18:22;8.31;;;3.7;;
61675;SDS011;47574;52.090;5.244;2022-09-09T06:19:59;9.31;;;4.41;;
61675;SDS011;47574;52.090;5.244;2022-09-09T06:23:13;7.4;;;3.9;;
61675;SDS011;47574;52.090;5.244;2022-09-09T06:24:49;8.1;;;4.5;;
61675;SDS011;47574;52.090;5.244;2022-09-09T06:26:26;8.2;;;4.5;;
61675;SDS011;47574;52.090;5.244;2022-09-09T06:29:39;10.8;;;4.2;;
61675;SDS011;47574;52.090;5.244;2022-09-09T06:31:17;11.0;;;4.41;;
61675;SDS011;47574;52.090;5.244;2022-09-09T06:32:55;9.1;;;4.3;;
61675;SDS011;47574;52.090;5.244;2022-09-09T06:34:32;9.1;;;4.5;;
61675;SDS011;47574;52.090;5.244;2022-09-09T06:37:48;11.0;;;4.2;;
61675;SDS011;47574;52.090;5.244;2022-09-09T06:39:24;9.1;;;4.1;;
61675;SDS011;47574;52.090;5.244;2022-09-09T06:41:02;10.6;;;3.8;;
61675;SDS011;47574;52.090;5.244;2022-09-09T06:44:15;10.6;;;3.8;;
61675;SDS011;47574;52.090;5.244;2022-09-09T06:45:52;7.6;;;3.3;;
61675;SDS011;47574;52.090;5.244;2022-09-09T06:47:30;8.5;;;3.5;;
61675;SDS011;47574;52.090;5.244;2022-09-09T06:49:07;11.7;;;3.8;;
61675;SDS011;47574;52.090;5.244;2022-09-09T06:52:19;8.9;;;3.4;;
61675;SDS011;47574;52.090;5.244;2022-09-09T06:53:56;9.31;;;3.4;;
61675;SDS011;47574;52.090;5.244;2022-09-09T06:55:34;12.0;;;4.0;;
61675;SDS011;47574;52.090;5.244;2022-09-09T06:58:49;7.5;;;3.4;;
61675;SDS011;47574;52.090;5.244;2022-09-09T07:00:26;15.1;;;3.7;;
61675;SDS011;47574;52.090;5.244;2022-09-09T07:02:03;10.8;;;3.4;;
61675;SDS011;47574;52.090;5.244;2022-09-09T07:05:16;11.6;;;3.9;;
61675;SDS011;47574;52.090;5.244;2022-09-09T07:06:52;15.3;;;3.7;;
61675;SDS011;47574;52.090;5.244;2022-09-09T07:08:28;8.9;;;3.4;;
61675;SDS011;47574;52.090;5.244;2022-09-09T07:10:04;8.31;;;3.1;;
61675;SDS011;47574;52.090;5.244;2022-09-09T07:13:23;10.4;;;3.7;;
61675;SDS011;47574;52.090;5.244;2022-09-09T07:15:01;11.3;;;3.2;;
61675;SDS011;47574;52.090;5.244;2022-09-09T07:16:37;11.5;;;3.7;;
61675;SDS011;47574;52.090;5.244;2022-09-09T07:19:49;11.2;;;3.3;;
61675;SDS011;47574;52.090;5.244;2022-09-09T07:21:26;8.6;;;2.8;;
61675;SDS011;47574;52.090;5.244;2022-09-09T07:23:04;8.9;;;2.8;;
61675;SDS011;47574;52.090;5.244;2022-09-09T07:24:40;10.3;;;3.2;;
61675;SDS011;47574;52.090;5.244;2022-09-09T07:27:57;10.7;;;3.1;;
61675;SDS011;47574;52.090;5.244;2022-09-09T07:29:33;6.5;;;2.7;;
61675;SDS011;47574;52.090;5.244;2022-09-09T07:34:27;12.7;;;3.6;;
61675;SDS011;47574;52.090;5.244;2022-09-09T07:36:05;10.3;;;3.2;;
61675;SDS011;47574;52.090;5.244;2022-09-09T07:37:43;9.1;;;3.4;;
61675;SDS011;47574;52.090;5.244;2022-09-09T07:39:20;9.21;;;3.4;;
61675;SDS011;47574;52.090;5.244;2022-09-09T07:42:39;9.5;;;3.4;;
61675;SDS011;47574;52.090;5.244;2022-09-09T07:44:16;9.31;;;3.4;;
61675;SDS011;47574;52.090;5.244;2022-09-09T07:45:57;9.1;;;3.5;;
61675;SDS011;47574;52.090;5.244;2022-09-09T07:49:10;9.81;;;3.1;;
61675;SDS011;47574;52.090;5.244;2022-09-09T07:50:47;7.8;;;2.9;;
61675;SDS011;47574;52.090;5.244;2022-09-09T07:52:23;8.9;;;3.0;;
61675;SDS011;47574;52.090;5.244;2022-09-09T07:54:00;9.5;;;3.2;;
61675;SDS011;47574;52.090;5.244;2022-09-09T07:57:15;15.3;;;3.5;;
61675;SDS011;47574;52.090;5.244;2022-09-09T07:58:52;8.81;;;3.3;;
61675;SDS011;47574;52.090;5.244;2022-09-09T08:00:30;7.2;;;3.2;;
61675;SDS011;47574;52.090;5.244;2022-09-09T08:03:44;11.0;;;3.3;;
61675;SDS011;47574;52.090;5.244;2022-09-09T08:05:28;12.7;;;3.2;;
61675;SDS011;47574;52.090;5.244;2022-09-09T08:07:04;6.7;;;2.6;;
61675;SDS011;47574;52.090;5.244;2022-09-09T08:08:41;10.4;;;2.8;;
61675;SDS011;47574;52.090;5.244;2022-09-09T08:11:56;7.9;;;2.6;;
61675;SDS011;47574;52.090;5.244;2022-09-09T08:13:33;11.2;;;2.7;;
61675;SDS011;47574;52.090;5.244;2022-09-09T08:15:10;13.7;;;2.8;;
61675;SDS011;47574;52.090;5.244;2022-09-09T08:18:26;10.1;;;2.7;;
61675;SDS011;47574;52.090;5.244;2022-09-09T08:20:05;10.4;;;2.4;;
61675;SDS011;47574;52.090;5.244;2022-09-09T08:21:43;7.6;;;2.1;;
61675;SDS011;47574;52.090;5.244;2022-09-09T08:23:21;9.31;;;2.4;;
61675;SDS011;47574;52.090;5.244;2022-09-09T08:26:35;10.21;;;2.4;;
61675;SDS011;47574;52.090;5.244;2022-09-09T08:28:12;7.2;;;2.4;;
61675;SDS011;47574;52.090;5.244;2022-09-09T08:29:48;8.6;;;2.5;;
61675;SDS011;47574;52.090;5.244;2022-09-09T08:33:05;9.0;;;2.7;;
61675;SDS011;47574;52.090;5.244;2022-09-09T08:34:41;11.3;;;2.5;;
61675;SDS011;47574;52.090;5.244;2022-09-09T08:36:19;10.0;;;2.5;;
61675;SDS011;47574;52.090;5.244;2022-09-09T08:43:42;8.6;;;2.5;;
61675;SDS011;47574;52.090;5.244;2022-09-09T08:45:24;8.6;;;2.5;;
61675;SDS011;47574;52.090;5.244;2022-09-09T08:47:09;7.6;;;2.5;;
61675;SDS011;47574;52.090;5.244;2022-09-09T08:49:00;12.5;;;2.7;;
61675;SDS011;47574;52.090;5.244;2022-09-09T08:50:43;9.0;;;2.4;;
61675;SDS011;47574;52.090;5.244;2022-09-09T08:54:03;8.31;;;2.21;;
61675;SDS011;47574;52.090;5.244;2022-09-09T08:55:42;12.7;;;2.8;;
61675;SDS011;47574;52.090;5.244;2022-09-09T08:57:21;6.7;;;2.21;;
61675;SDS011;47574;52.090;5.244;2022-09-09T08:59:03;9.6;;;2.9;;
61675;SDS011;47574;52.090;5.244;2022-09-09T09:02:46;10.3;;;2.7;;
61675;SDS011;47574;52.090;5.244;2022-09-09T09:04:38;9.71;;;2.5;;
61675;SDS011;47574;52.090;5.244;2022-09-09T09:06:31;11.3;;;2.8;;
61675;SDS011;47574;52.090;5.244;2022-09-09T09:08:21;8.81;;;2.8;;
61675;SDS011;47574;52.090;5.244;2022-09-09T09:10:09;9.1;;;2.8;;
61675;SDS011;47574;52.090;5.244;2022-09-09T09:12:01;11.3;;;2.4;;
61675;SDS011;47574;52.090;5.244;2022-09-09T09:13:44;7.5;;;2.5;;
61675;SDS011;47574;52.090;5.244;2022-09-09T09:17:13;9.81;;;2.5;;
61675;SDS011;47574;52.090;5.244;2022-09-09T09:18:55;7.4;;;2.0;;
61675;SDS011;47574;52.090;5.244;2022-09-09T09:20:32;7.2;;;2.31;;
61675;SDS011;47574;52.090;5.244;2022-09-09T09:22:20;10.5;;;2.7;;
61675;SDS011;47574;52.090;5.244;2022-09-09T09:23:59;7.6;;;2.8;;
61675;SDS011;47574;52.090;5.244;2022-09-09T09:27:20;8.4;;;2.1;;
61675;SDS011;47574;52.090;5.244;2022-09-09T09:29:11;9.9;;;2.4;;
61675;SDS011;47574;52.090;5.244;2022-09-09T09:30:49;9.1;;;2.5;;
61675;SDS011;47574;52.090;5.244;2022-09-09T09:32:30;9.0;;;2.6;;
61675;SDS011;47574;52.090;5.244;2022-09-09T09:35:48;11.3;;;2.21;;
61675;SDS011;47574;52.090;5.244;2022-09-09T09:37:26;6.9;;;2.21;;
61675;SDS011;47574;52.090;5.244;2022-09-09T09:39:06;8.1;;;2.21;;
61675;SDS011;47574;52.090;5.244;2022-09-09T09:40:51;7.9;;;2.21;;
61675;SDS011;47574;52.090;5.244;2022-09-09T09:44:18;11.2;;;2.9;;
61675;SDS011;47574;52.090;5.244;2022-09-09T09:46:00;9.6;;;2.31;;
61675;SDS011;47574;52.090;5.244;2022-09-09T09:47:41;13.2;;;3.2;;
61675;SDS011;47574;52.090;5.244;2022-09-09T09:49:17;10.1;;;3.3;;
61675;SDS011;47574;52.090;5.244;2022-09-09T09:52:34;10.6;;;3.3;;
61675;SDS011;47574;52.090;5.244;2022-09-09T09:54:15;8.6;;;2.8;;
61675;SDS011;47574;52.090;5.244;2022-09-09T09:55:59;11.1;;;3.4;;
61675;SDS011;47574;52.090;5.244;2022-09-09T09:57:39;10.4;;;3.0;;
61675;SDS011;47574;52.090;5.244;2022-09-09T10:01:18;9.5;;;3.1;;
61675;SDS011;47574;52.090;5.244;2022-09-09T10:02:59;9.5;;;2.8;;
61675;SDS011;47574;52.090;5.244;2022-09-09T10:04:35;8.9;;;2.6;;
61675;SDS011;47574;52.090;5.244;2022-09-09T10:06:12;12.9;;;4.2;;
61675;SDS011;47574;52.090;5.244;2022-09-09T10:09:37;8.4;;;2.8;;
61675;SDS011;47574;52.090;5.244;2022-09-09T10:11:20;10.21;;;2.6;;
61675;SDS011;47574;52.090;5.244;2022-09-09T10:13:07;10.0;;;3.0;;
61675;SDS011;47574;52.090;5.244;2022-09-09T10:14:53;13.5;;;2.8;;
61675;SDS011;47574;52.090;5.244;2022-09-09T10:16:42;9.1;;;2.5;;
61675;SDS011;47574;52.090;5.244;2022-09-09T10:18:35;11.9;;;2.5;;
61675;SDS011;47574;52.090;5.244;2022-09-09T10:20:27;10.3;;;2.6;;
61675;SDS011;47574;52.090;5.244;2022-09-09T10:24:05;9.1;;;3.1;;
61675;SDS011;47574;52.090;5.244;2022-09-09T10:26:05;10.9;;;2.7;;
61675;SDS011;47574;52.090;5.244;2022-09-09T10:28:21;10.3;;;3.1;;
61675;SDS011;47574;52.090;5.244;2022-09-09T10:30:58;13.5;;;3.5;;
61675;SDS011;47574;52.090;5.244;2022-09-09T10:34:45;10.1;;;3.4;;
61675;SDS011;47574;52.090;5.244;2022-09-09T10:36:31;11.3;;;3.6;;
61675;SDS011;47574;52.090;5.244;2022-09-09T10:38:15;10.21;;;3.1;;
61675;SDS011;47574;52.090;5.244;2022-09-09T10:39:56;10.21;;;3.1;;
61675;SDS011;47574;52.090;5.244;2022-09-09T10:41:52;12.7;;;3.4;;
61675;SDS011;47574;52.090;5.244;2022-09-09T10:43:42;12.5;;;3.6;;
61675;SDS011;47574;52.090;5.244;2022-09-09T10:45:36;8.9;;;3.2;;
61675;SDS011;47574;52.090;5.244;2022-09-09T10:49:26;9.4;;;3.4;;
61675;SDS011;47574;52.090;5.244;2022-09-09T10:51:22;11.8;;;3.6;;
61675;SDS011;47574;52.090;5.244;2022-09-09T10:53:08;7.8;;;3.2;;
61675;SDS011;47574;52.090;5.244;2022-09-09T10:54:53;9.4;;;3.4;;
61675;SDS011;47574;52.090;5.244;2022-09-09T10:56:36;8.81;;;3.2;;
61675;SDS011;47574;52.090;5.244;2022-09-09T10:58:14;8.71;;;2.7;;
61675;SDS011;47574;52.090;5.244;2022-09-09T11:01:43;9.31;;;3.3;;
61675;SDS011;47574;52.090;5.244;2022-09-09T11:03:23;6.3;;;3.0;;
61675;SDS011;47574;52.090;5.244;2022-09-09T11:05:03;7.9;;;2.6;;
61675;SDS011;47574;52.090;5.244;2022-09-09T11:06:53;9.21;;;2.8;;
61675;SDS011;47574;52.090;5.244;2022-09-09T11:08:31;7.8;;;3.1;;
61675;SDS011;47574;52.090;5.244;2022-09-09T11:12:00;5.5;;;2.8;;
61675;SDS011;47574;52.090;5.244;2022-09-09T11:13:39;6.2;;;3.1;;
61675;SDS011;47574;52.090;5.244;2022-09-09T11:15:23;9.6;;;3.0;;
61675;SDS011;47574;52.090;5.244;2022-09-09T11:17:15;8.71;;;2.8;;
61675;SDS011;47574;52.090;5.244;2022-09-09T11:19:00;9.31;;;3.1;;
61675;SDS011;47574;52.090;5.244;2022-09-09T11:22:22;8.31;;;3.0;;
61675;SDS011;47574;52.090;5.244;2022-09-09T11:24:13;8.81;;;3.0;;
61675;SDS011;47574;52.090;5.244;2022-09-09T11:25:57;8.0;;;3.0;;
61675;SDS011;47574;52.090;5.244;2022-09-09T11:27:41;8.5;;;2.7;;
61675;SDS011;47574;52.090;5.244;2022-09-09T11:29:49;9.1;;;2.6;;
61675;SDS011;47574;52.090;5.244;2022-09-09T11:31:43;8.9;;;2.5;;
61675;SDS011;47574;52.090;5.244;2022-09-09T11:35:34;6.3;;;2.21;;
61675;SDS011;47574;52.090;5.244;2022-09-09T11:37:25;7.5;;;2.31;;
61675;SDS011;47574;52.090;5.244;2022-09-09T11:39:52;7.4;;;2.21;;
61675;SDS011;47574;52.090;5.244;2022-09-09T11:41:40;7.2;;;2.1;;
61675;SDS011;47574;52.090;5.244;2022-09-09T11:43:18;6.6;;;2.21;;
61675;SDS011;47574;52.090;5.244;2022-09-09T11:45:08;7.7;;;2.4;;
61675;SDS011;47574;52.090;5.244;2022-09-09T11:46:46;7.7;;;2.21;;
61675;SDS011;47574;52.090;5.244;2022-09-09T11:48:29;7.0;;;2.4;;
61675;SDS011;47574;52.090;5.244;2022-09-09T11:52:10;6.4;;;2.21;;
61675;SDS011;47574;52.090;5.244;2022-09-09T11:53:56;6.1;;;2.31;;
61675;SDS011;47574;52.090;5.244;2022-09-09T11:55:36;10.8;;;3.1;;
61675;SDS011;47574;52.090;5.244;2022-09-09T11:57:16;8.2;;;3.5;;
61675;SDS011;47574;52.090;5.244;2022-09-09T11:59:03;9.0;;;3.3;;
61675;SDS011;47574;52.090;5.244;2022-09-09T12:02:21;8.1;;;3.5;;
61675;SDS011;47574;52.090;5.244;2022-09-09T12:04:05;10.3;;;4.0;;
61675;SDS011;47574;52.090;5.244;2022-09-09T12:05:49;8.71;;;3.6;;
61675;SDS011;47574;52.090;5.244;2022-09-09T12:07:30;8.31;;;3.5;;
61675;SDS011;47574;52.090;5.244;2022-09-09T12:09:16;10.0;;;3.4;;
61675;SDS011;47574;52.090;5.244;2022-09-09T12:12:36;9.5;;;3.5;;
61675;SDS011;47574;52.090;5.244;2022-09-09T12:14:21;9.31;;;3.5;;
61675;SDS011;47574;52.090;5.244;2022-09-09T12:16:26;9.5;;;3.5;;
61675;SDS011;47574;52.090;5.244;2022-09-09T12:18:04;8.81;;;3.9;;
61675;SDS011;47574;52.090;5.244;2022-09-09T12:19:59;8.81;;;3.9;;
61675;SDS011;47574;52.090;5.244;2022-09-09T12:23:29;7.3;;;3.2;;
61675;SDS011;47574;52.090;5.244;2022-09-09T12:25:16;10.4;;;3.6;;
61675;SDS011;47574;52.090;5.244;2022-09-09T12:27:01;8.2;;;3.7;;
61675;SDS011;47574;52.090;5.244;2022-09-09T12:28:46;9.0;;;3.7;;
61675;SDS011;47574;52.090;5.244;2022-09-09T12:30:31;6.8;;;3.8;;
61675;SDS011;47574;52.090;5.244;2022-09-09T12:32:20;7.6;;;3.4;;
61675;SDS011;47574;52.090;5.244;2022-09-09T12:35:49;9.71;;;4.2;;
61675;SDS011;47574;52.090;5.244;2022-09-09T12:37:32;7.5;;;3.8;;
61675;SDS011;47574;52.090;5.244;2022-09-09T12:39:15;7.0;;;3.9;;
61675;SDS011;47574;52.090;5.244;2022-09-09T12:40:56;8.4;;;3.6;;
61675;SDS011;47574;52.090;5.244;2022-09-09T12:44:15;8.81;;;4.1;;
61675;SDS011;47574;52.090;5.244;2022-09-09T12:45:57;8.0;;;3.9;;
61675;SDS011;47574;52.090;5.244;2022-09-09T12:47:39;6.2;;;3.7;;
61675;SDS011;47574;52.090;5.244;2022-09-09T12:49:25;8.6;;;4.2;;
61675;SDS011;47574;52.090;5.244;2022-09-09T12:51:07;7.3;;;3.5;;
61675;SDS011;47574;52.090;5.244;2022-09-09T12:54:42;8.31;;;4.1;;
61675;SDS011;47574;52.090;5.244;2022-09-09T12:56:21;8.0;;;3.9;;
61675;SDS011;47574;52.090;5.244;2022-09-09T12:58:00;8.71;;;3.7;;
61675;SDS011;47574;52.090;5.244;2022-09-09T12:59:39;5.8;;;3.2;;
61675;SDS011;47574;52.090;5.244;2022-09-09T13:03:00;9.0;;;3.5;;
61675;SDS011;47574;52.090;5.244;2022-09-09T13:04:37;6.6;;;3.2;;
61675;SDS011;47574;52.090;5.244;2022-09-09T13:06:18;8.1;;;3.5;;
61675;SDS011;47574;52.090;5.244;2022-09-09T13:08:00;7.8;;;3.4;;